Pereiaslavskyi — UUBF2 — position and weather

sailwx.info

Track history (hours):
 
Tides and Currents Weather Stations Pressure Air Temp Water Temp Dewpoint Dewpoint Depression Visibility Wind Speed Wind Dir Waves Ship Positions

Pereiaslavskyi

Last reported at 2018-Jun-18 06:15 UTC. Time now 2018-Jun-18 15:42 UTC.
Position N 46°35' E 031°26'.

Length 28 m; draft 1.7 m.

Type: Tug. MMSI: 272743000.

Date/timePositionNaut miles runAvg speedWind from/ knotsBaromVisibWave heightAir tempDewpointWater temp
2018-Jun-18 06:15N 46°35' E 031°26'1 2.9
2018-Jun-18 05:58N 46°35' E 031°25'2 3.1
2018-Jun-18 05:28N 46°35' E 031°23'1 2.9
2018-Jun-18 05:00N 46°35' E 031°21'1 2.9
2018-Jun-18 04:30N 46°35' E 031°19'2 3.0
2018-Jun-18 04:00N 46°35' E 031°16'1 1.5
2018-Jun-18 03:30N 46°34' E 031°16'0 0.0
2018-Jun-18 03:00N 46°34' E 031°16'0 0.0
2018-Jun-18 02:30N 46°34' E 031°16'0 0.0
2018-Jun-18 02:00N 46°34' E 031°16'0 0.0
2018-Jun-18 01:30N 46°34' E 031°16'0 0.3
2018-Jun-18 01:00N 46°34' E 031°16'0 0.5
2018-Jun-18 00:30N 46°34' E 031°16'0 0.0
2018-Jun-18 00:00N 46°34' E 031°16'0 0.0
2018-Jun-17 23:30N 46°34' E 031°16'0 0.6
2018-Jun-17 23:00N 46°34' E 031°16'0 0.5
2018-Jun-17 22:30N 46°34' E 031°16'0 0.6
2018-Jun-17 22:00N 46°34' E 031°16'0 0.0
2018-Jun-17 20:23N 46°34' E 031°16'0 0.0
2018-Jun-17 20:00N 46°34' E 031°16'0 0.1
2018-Jun-17 19:29N 46°34' E 031°16'0 0.1
2018-Jun-17 19:00N 46°34' E 031°16'0 0.0
2018-Jun-17 18:30N 46°34' E 031°16'0 0.0
2018-Jun-17 17:57N 46°34' E 031°16'0 0.0
2018-Jun-17 17:28N 46°34' E 031°16'0 0.0
2018-Jun-17 17:00N 46°34' E 031°16'0 0.0
2018-Jun-17 16:30N 46°34' E 031°16'0 0.0
2018-Jun-17 15:58N 46°34' E 031°16'0 0.0
2018-Jun-17 15:30N 46°34' E 031°16'0 0.0
2018-Jun-17 15:00N 46°34' E 031°16'0 0.0
2018-Jun-17 14:30N 46°34' E 031°16'0 0.0
2018-Jun-17 13:59N 46°34' E 031°16'0 0.7
2018-Jun-17 13:30N 46°34' E 031°16'0 0.1
2018-Jun-17 13:00N 46°34' E 031°16'0 0.0
2018-Jun-17 12:29N 46°34' E 031°16'0 0.0
2018-Jun-17 11:57N 46°34' E 031°16'0 0.0
2018-Jun-17 11:28N 46°34' E 031°16'0 0.0
2018-Jun-17 11:00N 46°34' E 031°16'0 0.0
2018-Jun-17 10:30N 46°34' E 031°16'0 0.0
2018-Jun-17 04:38N 46°34' E 031°16'0 0.0
2018-Jun-17 01:10N 46°34' E 031°16'0 0.0
2018-Jun-17 00:54N 46°34' E 031°16'0 0.0
2018-Jun-17 00:25N 46°34' E 031°16'0 0.0
2018-Jun-16 23:37N 46°34' E 031°16'0 0.0
2018-Jun-16 23:30N 46°34' E 031°16'0 0.0
2018-Jun-16 22:57N 46°34' E 031°16'0 0.3
2018-Jun-16 21:59N 46°34' E 031°16'0 0.1
2018-Jun-16 20:53N 46°34' E 031°16'0 0.0
2018-Jun-16 20:30N 46°34' E 031°16'0 0.1
2018-Jun-16 19:45N 46°34' E 031°16'0 0.2
2018-Jun-16 19:18N 46°34' E 031°16'1 2.5
2018-Jun-16 19:00N 46°34' E 031°17'3 2.8
2018-Jun-16 17:52N 46°34' E 031°22'1 2.7
2018-Jun-16 17:30N 46°34' E 031°23'1 2.8
2018-Jun-16 16:59N 46°35' E 031°25'5 2.5
2018-Jun-16 15:06N 46°35' E 031°32'1 2.7
2018-Jun-16 14:54N 46°35' E 031°33'1 2.7
2018-Jun-16 14:24N 46°35' E 031°35'1 2.7
2018-Jun-16 14:00N 46°35' E 031°36'1 2.7
2018-Jun-16 13:30N 46°36' E 031°38'2 2.9
2018-Jun-16 12:56N 46°36' E 031°41'1 2.9
2018-Jun-16 12:30N 46°36' E 031°42'1 1.0
2018-Jun-16 11:58N 46°36' E 031°43'0 0.1
2018-Jun-16 11:03N 46°36' E 031°43'0 0.5
2018-Jun-16 10:59N 46°36' E 031°43'10 0.9
2018-Jun-15 23:50N 46°41' E 031°56'1 2.9
2018-Jun-15 23:27N 46°42' E 031°56'1 2.9
2018-Jun-15 22:59N 46°44' E 031°56'1 3.0
2018-Jun-15 22:29N 46°45' E 031°54'1 2.6
2018-Jun-15 21:59N 46°46' E 031°53'2 3.0
2018-Jun-15 21:27N 46°47' E 031°53'3 2.8
2018-Jun-15 20:22N 46°50' E 031°56'1 2.9
2018-Jun-15 19:59N 46°51' E 031°57'1 2.8
2018-Jun-15 19:30N 46°52' E 031°58'1 2.8
2018-Jun-15 19:00N 46°53' E 031°59'1 2.8
2018-Jun-15 18:30N 46°54' E 032°01'1 2.7
2018-Jun-15 18:00N 46°55' E 032°01'1 2.5
2018-Jun-15 17:30N 46°56' E 031°60'1 1.1
2018-Jun-15 17:00N 46°56' E 031°59'0 0.7
2018-Jun-15 16:30N 46°57' E 031°59'0 0.0
2018-Jun-15 16:00N 46°57' E 031°59'0 0.0
2018-Jun-15 15:29N 46°57' E 031°59'0 0.4
2018-Jun-15 15:00N 46°57' E 031°59'0 0.4
2018-Jun-15 14:30N 46°57' E 031°59'0 0.2
2018-Jun-15 14:00N 46°57' E 031°59'0 0.7
2018-Jun-15 13:30N 46°57' E 031°59'0 0.0
2018-Jun-15 13:00N 46°57' E 031°59'0 0.0
2018-Jun-15 12:30N 46°57' E 031°59'0 0.0
2018-Jun-15 12:00N 46°57' E 031°59'0 0.0
2018-Jun-15 11:30N 46°57' E 031°59'0 0.0
2018-Jun-15 11:00N 46°57' E 031°59'0 0.0
2018-Jun-15 10:30N 46°57' E 031°59'0 0.0
2018-Jun-15 10:00N 46°57' E 031°59'0 0.0
2018-Jun-15 09:30N 46°57' E 031°59'0 0.0
2018-Jun-15 09:00N 46°57' E 031°59'0 0.0
2018-Jun-15 08:30N 46°57' E 031°59'0 0.0
2018-Jun-15 08:00N 46°57' E 031°59'0 0.0
2018-Jun-15 07:30N 46°57' E 031°59'0 0.0
2018-Jun-15 07:00N 46°57' E 031°59'0 0.0
2018-Jun-15 06:30N 46°57' E 031°59'0 0.0
2018-Jun-15 06:00N 46°57' E 031°59'0 0.0
2018-Jun-15 05:30N 46°57' E 031°59'0 0.0
2018-Jun-15 05:00N 46°57' E 031°59'0 0.0
2018-Jun-15 04:30N 46°57' E 031°59'0 0.0
2018-Jun-15 04:00N 46°57' E 031°59'0 0.0
2018-Jun-15 03:30N 46°57' E 031°59'0 0.0
2018-Jun-15 03:00N 46°57' E 031°59'0 0.0
2018-Jun-15 02:30N 46°57' E 031°59'0 0.0
2018-Jun-15 02:00N 46°57' E 031°59'0 0.0
2018-Jun-15 01:30N 46°57' E 031°59'0 0.0
2018-Jun-15 01:00N 46°57' E 031°59'0 0.0
2018-Jun-15 00:30N 46°57' E 031°59'0 0.0
2018-Jun-15 00:00N 46°57' E 031°59'0 0.0
2018-Jun-14 23:30N 46°57' E 031°59'0 0.0
2018-Jun-14 23:00N 46°57' E 031°59'0 0.0
2018-Jun-14 22:30N 46°57' E 031°59'0 0.0
2018-Jun-14 22:00N 46°57' E 031°59'0 0.0
2018-Jun-14 21:30N 46°57' E 031°59'0 0.0
2018-Jun-14 21:00N 46°57' E 031°59'0 0.0
2018-Jun-14 20:30N 46°57' E 031°59'0 0.0
2018-Jun-14 20:00N 46°57' E 031°59'0 0.0
2018-Jun-14 19:30N 46°57' E 031°59'0 0.0
2018-Jun-14 19:00N 46°57' E 031°59'0 0.0
2018-Jun-14 18:30N 46°57' E 031°59'0 0.0
2018-Jun-14 18:00N 46°57' E 031°59'0 0.0
2018-Jun-14 17:30N 46°57' E 031°59'0 0.0
2018-Jun-14 17:00N 46°57' E 031°59'0 0.0
2018-Jun-14 16:30N 46°57' E 031°59'0 0.0
2018-Jun-14 16:00N 46°57' E 031°59'0 0.0
2018-Jun-14 15:30N 46°57' E 031°59'0 0.0
2018-Jun-14 15:00N 46°57' E 031°59'0 0.0
2018-Jun-14 14:30N 46°57' E 031°59'0 0.0
2018-Jun-14 14:00N 46°57' E 031°59'0 0.0
2018-Jun-14 13:30N 46°57' E 031°59'0 0.0
2018-Jun-14 13:00N 46°57' E 031°59'0 0.0
2018-Jun-14 12:30N 46°57' E 031°59'0 0.0
2018-Jun-14 12:00N 46°57' E 031°59'0 0.0
2018-Jun-14 11:30N 46°57' E 031°59'0 0.0
2018-Jun-14 11:00N 46°57' E 031°59'0 0.0
2018-Jun-14 10:30N 46°57' E 031°59'0 0.0
2018-Jun-14 10:00N 46°57' E 031°59'0 0.0
2018-Jun-14 09:30N 46°57' E 031°59'0 0.0
2018-Jun-14 09:00N 46°57' E 031°59'0 0.8
2018-Jun-14 08:30N 46°57' E 031°59'0 0.0
2018-Jun-14 08:00N 46°57' E 031°59'0 0.5
2018-Jun-14 07:30N 46°56' E 031°59'0 0.4
2018-Jun-14 07:00N 46°57' E 031°59'0 0.1
2018-Jun-14 06:30N 46°57' E 031°59'0 0.0
2018-Jun-14 06:00N 46°57' E 031°59'0 0.1
2018-Jun-14 05:30N 46°57' E 031°59'0 0.1
2018-Jun-14 04:58N 46°57' E 031°59'0 0.1
2018-Jun-14 04:30N 46°57' E 031°59'0 0.0
2018-Jun-14 04:00N 46°57' E 031°59'0 0.0
2018-Jun-14 03:30N 46°57' E 031°59'0 0.0
2018-Jun-14 03:00N 46°57' E 031°59'1 1.2
2018-Jun-14 02:30N 46°57' E 031°60'0 0.4
2018-Jun-14 02:00N 46°57' E 031°59'0 0.8
2018-Jun-14 01:30N 46°57' E 031°59'0 0.0
2018-Jun-14 01:00N 46°57' E 031°59'0 0.0
2018-Jun-14 00:30N 46°57' E 031°59'0 0.0
2018-Jun-14 00:00N 46°57' E 031°59'0 0.0
2018-Jun-13 23:30N 46°57' E 031°59'0 0.0
2018-Jun-13 23:00N 46°57' E 031°59'0 0.0
2018-Jun-13 22:30N 46°57' E 031°59'0 0.2
2018-Jun-13 22:00N 46°56' E 031°59'0 0.9
2018-Jun-13 21:30N 46°57' E 031°59'0 0.8
2018-Jun-13 21:00N 46°57' E 031°59'0 0.0
2018-Jun-13 20:30N 46°57' E 031°59'0 0.0
2018-Jun-13 20:00N 46°57' E 031°59'0 0.0
2018-Jun-13 19:30N 46°57' E 031°59'0 0.0
2018-Jun-13 19:00N 46°57' E 031°59'0 0.0
2018-Jun-13 18:30N 46°57' E 031°59'0 0.0
2018-Jun-13 18:00N 46°57' E 031°59'0 0.0
2018-Jun-13 17:30N 46°57' E 031°59'0 0.0
2018-Jun-13 17:00N 46°57' E 031°59'0 0.1
2018-Jun-13 16:30N 46°57' E 031°59'0 0.8
2018-Jun-13 16:00N 46°56' E 031°59'0 0.4
2018-Jun-13 15:30N 46°56' E 031°59'0 0.4
2018-Jun-13 15:00N 46°56' E 031°59'0 0.7
2018-Jun-13 14:30N 46°57' E 031°59'0 0.0
2018-Jun-13 14:00N 46°57' E 031°59'0 0.0
2018-Jun-13 13:30N 46°57' E 031°59'0 0.0
2018-Jun-13 13:00N 46°57' E 031°59'0 0.0
2018-Jun-13 12:30N 46°57' E 031°59'0 0.1
2018-Jun-13 12:00N 46°57' E 031°59'0 1.0
2018-Jun-13 11:30N 46°57' E 031°59'0 0.3
2018-Jun-13 10:07N 46°57' E 031°59'0 0.0
2018-Jun-13 10:00N 46°57' E 031°59'0 0.0
2018-Jun-13 09:30N 46°57' E 031°59'0 0.0
2018-Jun-13 09:00N 46°57' E 031°59'0 0.0
2018-Jun-13 08:30N 46°57' E 031°59'0 0.0
2018-Jun-13 08:00N 46°57' E 031°59'0 0.0
2018-Jun-13 07:30N 46°57' E 031°59'0 0.0
2018-Jun-13 07:00N 46°57' E 031°59'0 0.8
2018-Jun-13 06:30N 46°57' E 031°59'0 0.8
2018-Jun-13 06:00N 46°57' E 031°59'0 0.3
2018-Jun-13 05:30N 46°57' E 031°59'0 0.0
2018-Jun-13 05:00N 46°57' E 031°59'0 0.0
2018-Jun-13 04:30N 46°57' E 031°59'0 0.0
2018-Jun-13 04:00N 46°57' E 031°59'0 0.0
2018-Jun-13 03:30N 46°57' E 031°59'0 0.0
2018-Jun-13 03:00N 46°57' E 031°59'0 0.0
2018-Jun-13 02:30N 46°57' E 031°59'0 0.0
2018-Jun-13 02:00N 46°57' E 031°59'0 0.0
2018-Jun-13 01:29N 46°57' E 031°59'0 0.0
2018-Jun-13 01:00N 46°57' E 031°59'0 0.0
2018-Jun-13 00:29N 46°57' E 031°59'0 0.0
2018-Jun-13 00:00N 46°57' E 031°59'0 0.0
2018-Jun-12 23:30N 46°57' E 031°59'0 0.0
2018-Jun-12 23:00N 46°57' E 031°59'0 0.0
2018-Jun-12 22:30N 46°57' E 031°59'0 0.0
2018-Jun-12 22:00N 46°57' E 031°59'0 0.0
2018-Jun-12 21:30N 46°57' E 031°59'0 0.0
2018-Jun-12 21:00N 46°57' E 031°59'0 0.0
2018-Jun-12 20:30N 46°57' E 031°59'0 0.0
2018-Jun-12 20:00N 46°57' E 031°59'0 0.0
2018-Jun-12 19:30N 46°57' E 031°59'0 0.0
2018-Jun-12 19:00N 46°57' E 031°59'0 0.0
2018-Jun-12 18:30N 46°57' E 031°59'0 0.0
2018-Jun-12 18:00N 46°57' E 031°59'0 0.0
2018-Jun-12 17:30N 46°57' E 031°59'0 0.0
2018-Jun-12 17:00N 46°57' E 031°59'0 0.0
2018-Jun-12 16:30N 46°57' E 031°59'0 0.0
2018-Jun-12 16:00N 46°57' E 031°59'0 0.0
2018-Jun-12 15:30N 46°57' E 031°59'0 0.0
2018-Jun-12 15:00N 46°57' E 031°59'0 0.0
2018-Jun-12 14:30N 46°57' E 031°59'0 0.0
2018-Jun-12 14:00N 46°57' E 031°59'0 0.1
2018-Jun-12 13:30N 46°57' E 031°59'0 0.7
2018-Jun-12 13:00N 46°57' E 031°59'0 0.1
2018-Jun-12 12:30N 46°57' E 031°59'0 0.0
2018-Jun-12 12:00N 46°57' E 031°59'0 0.0
2018-Jun-12 11:30N 46°57' E 031°59'0 0.0
2018-Jun-12 11:00N 46°57' E 031°59'0 0.0
2018-Jun-12 10:30N 46°57' E 031°59'0 0.0
2018-Jun-12 10:00N 46°57' E 031°59'0 0.0
2018-Jun-12 09:29N 46°57' E 031°59'0 0.0
2018-Jun-12 09:00N 46°57' E 031°59'0 0.1
2018-Jun-12 08:30N 46°57' E 031°59'0 0.9
2018-Jun-12 08:00N 46°57' E 031°59'0 0.4
2018-Jun-12 07:30N 46°57' E 031°59'0 0.0
2018-Jun-12 07:00N 46°57' E 031°59'0 0.0
2018-Jun-12 06:30N 46°57' E 031°59'0 0.0
2018-Jun-12 06:00N 46°57' E 031°59'0 0.0
2018-Jun-12 05:30N 46°57' E 031°59'0 0.0
2018-Jun-12 05:00N 46°57' E 031°59'0 0.0
2018-Jun-12 04:30N 46°57' E 031°59'0 0.0
2018-Jun-12 04:00N 46°57' E 031°59'0 0.0
2018-Jun-12 03:30N 46°57' E 031°59'0 0.0
2018-Jun-12 02:59N 46°57' E 031°59'0 0.0
2018-Jun-12 02:30N 46°57' E 031°59'0 0.0
2018-Jun-12 02:00N 46°57' E 031°59'0 0.0
2018-Jun-12 01:30N 46°57' E 031°59'0 0.0
2018-Jun-12 01:00N 46°57' E 031°59'0 0.0
2018-Jun-12 00:30N 46°57' E 031°59'0 0.0
2018-Jun-12 00:00N 46°57' E 031°59'1 2.7
2018-Jun-11 23:30N 46°56' E 032°01'2 3.2
2018-Jun-11 23:00N 46°54' E 032°01'2 3.6
2018-Jun-11 22:30N 46°53' E 031°59'2 3.7
2018-Jun-11 22:00N 46°51' E 031°57'2 3.7
2018-Jun-11 21:30N 46°50' E 031°55'2 3.7
2018-Jun-11 21:00N 46°49' E 031°54'2 3.4
2018-Jun-11 20:30N 46°47' E 031°53'2 3.7
2018-Jun-11 20:00N 46°45' E 031°54'2 3.7
2018-Jun-11 19:30N 46°44' E 031°56'2 3.6
2018-Jun-11 19:00N 46°42' E 031°56'2 3.7
2018-Jun-11 18:30N 46°40' E 031°56'2 3.8
2018-Jun-11 18:00N 46°38' E 031°55'2 3.9
2018-Jun-11 17:30N 46°37' E 031°53'2 4.2
2018-Jun-11 16:59N 46°36' E 031°50'2 3.4
2018-Jun-11 16:29N 46°35' E 031°48'2 3.3
2018-Jun-11 16:00N 46°36' E 031°46'2 3.7
2018-Jun-11 15:30N 46°35' E 031°43'2 3.8
2018-Jun-11 15:00N 46°35' E 031°41'2 3.7
2018-Jun-11 14:30N 46°35' E 031°38'2 3.7
2018-Jun-11 13:59N 46°35' E 031°35'2 3.9
2018-Jun-11 13:30N 46°35' E 031°32'2 3.6
2018-Jun-11 13:00N 46°36' E 031°30'2 3.5
2018-Jun-11 12:30N 46°35' E 031°28'2 3.9
2018-Jun-11 12:00N 46°35' E 031°25'2 3.9
2018-Jun-11 11:30N 46°35' E 031°22'2 3.6
2018-Jun-11 11:00N 46°35' E 031°20'1 2.1
2018-Jun-11 10:30N 46°35' E 031°18'0 0.1
2018-Jun-11 10:00N 46°35' E 031°18'0 0.0
2018-Jun-11 09:30N 46°35' E 031°18'0 0.7
2018-Jun-11 09:00N 46°36' E 031°18'0 0.0
2018-Jun-11 08:30N 46°36' E 031°18'0 0.7
2018-Jun-11 07:59N 46°35' E 031°18'0 0.1
2018-Jun-11 07:30N 46°35' E 031°18'0 0.9
2018-Jun-11 07:00N 46°35' E 031°19'1 2.7
2018-Jun-11 06:30N 46°35' E 031°20'1 2.7
2018-Jun-11 05:59N 46°35' E 031°22'1 2.7
2018-Jun-11 05:30N 46°35' E 031°24'1 2.7
2018-Jun-11 05:00N 46°35' E 031°26'2 2.9
2018-Jun-11 04:25N 46°36' E 031°28'2 2.4
2018-Jun-11 03:37N 46°35' E 031°31'0 2.7
2018-Jun-11 03:30N 46°35' E 031°31'1 2.3
2018-Jun-11 03:00N 46°35' E 031°33'1 2.5
2018-Jun-11 02:30N 46°36' E 031°34'1 1.8
2018-Jun-11 02:00N 46°36' E 031°35'0 0.0
2018-Jun-11 01:08N 46°36' E 031°35'0 0.0
2018-Jun-11 00:58N 46°36' E 031°35'0 0.0
2018-Jun-11 00:30N 46°36' E 031°35'0 0.0
2018-Jun-10 23:04N 46°36' E 031°35'0 0.1
2018-Jun-10 22:57N 46°36' E 031°35'0 0.0
2018-Jun-10 22:30N 46°36' E 031°35'0 0.0
2018-Jun-10 22:00N 46°36' E 031°35'0 0.0
2018-Jun-10 21:30N 46°36' E 031°35'0 0.0
2018-Jun-10 21:00N 46°36' E 031°35'0 0.0
2018-Jun-10 20:30N 46°36' E 031°35'0 0.0
2018-Jun-10 19:53N 46°36' E 031°35'0 0.0
2018-Jun-10 19:22N 46°36' E 031°35'0 0.0
2018-Jun-10 18:54N 46°36' E 031°35'0 0.0
2018-Jun-10 18:20N 46°36' E 031°35'0 0.0
2018-Jun-10 17:57N 46°36' E 031°35'0 0.1
2018-Jun-10 17:30N 46°36' E 031°35'1 1.0
2018-Jun-10 16:37N 46°36' E 031°34'2 5.9
2018-Jun-10 16:16N 46°35' E 031°32'2 7.2
2018-Jun-10 16:00N 46°36' E 031°30'4 7.2
2018-Jun-10 15:30N 46°35' E 031°25'4 7.1
2018-Jun-10 15:00N 46°35' E 031°20'0 0.2
2018-Jun-10 13:30N 46°35' E 031°20'10 1.8
2018-Jun-10 07:53N 46°37' E 031°34'1 1.6
2018-Jun-10 07:29N 46°36' E 031°35'0 0.0
2018-Jun-10 07:00N 46°36' E 031°35'0 0.0
2018-Jun-10 06:30N 46°36' E 031°35'0 0.0
2018-Jun-10 06:00N 46°36' E 031°35'0 0.0
2018-Jun-10 05:26N 46°36' E 031°35'0 0.1
2018-Jun-10 05:00N 46°36' E 031°35'0 0.1
2018-Jun-10 04:30N 46°36' E 031°35'0 0.1
2018-Jun-10 04:00N 46°36' E 031°35'0 0.0
2018-Jun-10 03:30N 46°36' E 031°35'0 0.0
2018-Jun-10 03:00N 46°36' E 031°35'0 0.0
2018-Jun-10 02:30N 46°36' E 031°35'0 0.0
2018-Jun-10 02:00N 46°36' E 031°35'0 0.1
2018-Jun-10 01:31N 46°36' E 031°35'0 0.0
2018-Jun-10 01:00N 46°36' E 031°35'0 0.0
2018-Jun-10 00:31N 46°36' E 031°35'0 0.0
2018-Jun-10 00:00N 46°36' E 031°35'0 0.1
2018-Jun-09 23:29N 46°36' E 031°35'0 0.1
2018-Jun-09 23:00N 46°36' E 031°35'0 0.0
2018-Jun-09 22:30N 46°36' E 031°35'0 0.0
2018-Jun-09 22:00N 46°36' E 031°35'0 0.1
2018-Jun-09 21:30N 46°36' E 031°35'0 0.0
2018-Jun-09 21:00N 46°36' E 031°35'0 0.0
2018-Jun-09 20:30N 46°36' E 031°35'0 0.0
2018-Jun-09 20:00N 46°36' E 031°35'0 0.0
2018-Jun-09 19:30N 46°36' E 031°35'0 0.0
2018-Jun-09 19:00N 46°36' E 031°35'0 0.0
2018-Jun-09 18:30N 46°36' E 031°35'0 0.0
2018-Jun-09 18:00N 46°36' E 031°35'0 0.0
2018-Jun-09 17:29N 46°36' E 031°35'0 0.0
2018-Jun-09 17:00N 46°36' E 031°35'0 0.0
2018-Jun-09 16:30N 46°36' E 031°35'0 0.0
2018-Jun-09 16:00N 46°36' E 031°35'0 0.0
2018-Jun-09 15:30N 46°36' E 031°35'0 0.0
2018-Jun-09 14:30N 46°36' E 031°35'0 0.0
2018-Jun-09 14:00N 46°36' E 031°35'0 0.0
2018-Jun-09 13:29N 46°36' E 031°35'0 0.0
2018-Jun-09 12:59N 46°36' E 031°35'0 0.0
2018-Jun-09 12:30N 46°36' E 031°35'0 0.0
2018-Jun-09 12:00N 46°36' E 031°35'0 0.0
2018-Jun-09 11:29N 46°36' E 031°35'0 0.0
2018-Jun-09 10:56N 46°36' E 031°35'0 0.0
2018-Jun-09 10:19N 46°36' E 031°35'0 0.0
2018-Jun-09 09:56N 46°36' E 031°35'0 0.0
2018-Jun-09 09:30N 46°36' E 031°35'0 0.0
2018-Jun-09 08:54N 46°36' E 031°35'4 2.8
2018-Jun-09 07:39N 46°35' E 031°40'1 3.8
2018-Jun-09 07:30N 46°35' E 031°40'2 3.8
2018-Jun-09 07:00N 46°36' E 031°43'2 3.7
2018-Jun-09 06:30N 46°35' E 031°46'2 3.6
2018-Jun-09 05:59N 46°35' E 031°49'2 3.7
2018-Jun-09 05:29N 46°35' E 031°51'2 3.5
2018-Jun-09 05:00N 46°34' E 031°54'2 3.4
2018-Jun-09 04:30N 46°34' E 031°56'2 3.4
2018-Jun-09 04:00N 46°33' E 031°58'2 3.3
2018-Jun-09 03:30N 46°33' E 032°00'2 3.2
2018-Jun-09 03:00N 46°32' E 032°03'2 3.3
2018-Jun-09 02:30N 46°32' E 032°05'2 3.3
2018-Jun-09 02:00N 46°32' E 032°07'2 3.2
2018-Jun-09 01:29N 46°32' E 032°10'2 3.2
2018-Jun-09 00:59N 46°33' E 032°12'1 3.1
2018-Jun-09 00:30N 46°33' E 032°14'2 3.5
2018-Jun-09 00:00N 46°33' E 032°17'2 3.8
2018-Jun-08 23:30N 46°33' E 032°19'2 3.5
2018-Jun-08 23:00N 46°33' E 032°22'2 3.5
2018-Jun-08 22:30N 46°33' E 032°24'1 2.5
2018-Jun-08 22:00N 46°33' E 032°26'0 0.1
2018-Jun-08 21:30N 46°33' E 032°26'0 0.1
2018-Jun-08 21:00N 46°33' E 032°26'1 2.0
2018-Jun-08 20:30N 46°34' E 032°27'2 4.1
2018-Jun-08 20:00N 46°35' E 032°30'3 3.7
2018-Jun-08 19:16N 46°36' E 032°34'1 1.5
2018-Jun-08 18:23N 46°35' E 032°35'1 3.0
2018-Jun-08 18:00N 46°34' E 032°34'  
Track history (hours):
 
Tides and Currents Weather Stations Pressure Air Temp Water Temp Dewpoint Dewpoint Depression Visibility Wind Speed Wind Dir Waves Ship Positions

Pereiaslavskyi

Last reported at 2018-Jun-18 06:15 UTC. Time now 2018-Jun-18 15:42 UTC.
Position N 46°35' E 031°26'.

Length 28 m; draft 1.7 m.

Type: Tug. MMSI: 272743000.

Date/timePositionNaut miles runAvg speedWind from/ knotsBaromVisibWave heightAir tempDewpointWater temp
2018-Jun-18 06:15N 46°35' E 031°26'1 2.9
2018-Jun-18 05:58N 46°35' E 031°25'2 3.1
2018-Jun-18 05:28N 46°35' E 031°23'1 2.9
2018-Jun-18 05:00N 46°35' E 031°21'1 2.9
2018-Jun-18 04:30N 46°35' E 031°19'2 3.0
2018-Jun-18 04:00N 46°35' E 031°16'1 1.5
2018-Jun-18 03:30N 46°34' E 031°16'0 0.0
2018-Jun-18 03:00N 46°34' E 031°16'0 0.0
2018-Jun-18 02:30N 46°34' E 031°16'0 0.0
2018-Jun-18 02:00N 46°34' E 031°16'0 0.0
2018-Jun-18 01:30N 46°34' E 031°16'0 0.3
2018-Jun-18 01:00N 46°34' E 031°16'0 0.5
2018-Jun-18 00:30N 46°34' E 031°16'0 0.0
2018-Jun-18 00:00N 46°34' E 031°16'0 0.0
2018-Jun-17 23:30N 46°34' E 031°16'0 0.6
2018-Jun-17 23:00N 46°34' E 031°16'0 0.5
2018-Jun-17 22:30N 46°34' E 031°16'0 0.6
2018-Jun-17 22:00N 46°34' E 031°16'0 0.0
2018-Jun-17 20:23N 46°34' E 031°16'0 0.0
2018-Jun-17 20:00N 46°34' E 031°16'0 0.1
2018-Jun-17 19:29N 46°34' E 031°16'0 0.1
2018-Jun-17 19:00N 46°34' E 031°16'0 0.0
2018-Jun-17 18:30N 46°34' E 031°16'0 0.0
2018-Jun-17 17:57N 46°34' E 031°16'0 0.0
2018-Jun-17 17:28N 46°34' E 031°16'0 0.0
2018-Jun-17 17:00N 46°34' E 031°16'0 0.0
2018-Jun-17 16:30N 46°34' E 031°16'0 0.0
2018-Jun-17 15:58N 46°34' E 031°16'0 0.0
2018-Jun-17 15:30N 46°34' E 031°16'0 0.0
2018-Jun-17 15:00N 46°34' E 031°16'0 0.0
2018-Jun-17 14:30N 46°34' E 031°16'0 0.0
2018-Jun-17 13:59N 46°34' E 031°16'0 0.7
2018-Jun-17 13:30N 46°34' E 031°16'0 0.1
2018-Jun-17 13:00N 46°34' E 031°16'0 0.0
2018-Jun-17 12:29N 46°34' E 031°16'0 0.0
2018-Jun-17 11:57N 46°34' E 031°16'0 0.0
2018-Jun-17 11:28N 46°34' E 031°16'0 0.0
2018-Jun-17 11:00N 46°34' E 031°16'0 0.0
2018-Jun-17 10:30N 46°34' E 031°16'0 0.0
2018-Jun-17 04:38N 46°34' E 031°16'0 0.0
2018-Jun-17 01:10N 46°34' E 031°16'0 0.0
2018-Jun-17 00:54N 46°34' E 031°16'0 0.0
2018-Jun-17 00:25N 46°34' E 031°16'0 0.0
2018-Jun-16 23:37N 46°34' E 031°16'0 0.0
2018-Jun-16 23:30N 46°34' E 031°16'0 0.0
2018-Jun-16 22:57N 46°34' E 031°16'0 0.3
2018-Jun-16 21:59N 46°34' E 031°16'0 0.1
2018-Jun-16 20:53N 46°34' E 031°16'0 0.0
2018-Jun-16 20:30N 46°34' E 031°16'0 0.1
2018-Jun-16 19:45N 46°34' E 031°16'0 0.2
2018-Jun-16 19:18N 46°34' E 031°16'1 2.5
2018-Jun-16 19:00N 46°34' E 031°17'3 2.8
2018-Jun-16 17:52N 46°34' E 031°22'1 2.7
2018-Jun-16 17:30N 46°34' E 031°23'1 2.8
2018-Jun-16 16:59N 46°35' E 031°25'5 2.5
2018-Jun-16 15:06N 46°35' E 031°32'1 2.7
2018-Jun-16 14:54N 46°35' E 031°33'1 2.7
2018-Jun-16 14:24N 46°35' E 031°35'1 2.7
2018-Jun-16 14:00N 46°35' E 031°36'1 2.7
2018-Jun-16 13:30N 46°36' E 031°38'2 2.9
2018-Jun-16 12:56N 46°36' E 031°41'1 2.9
2018-Jun-16 12:30N 46°36' E 031°42'1 1.0
2018-Jun-16 11:58N 46°36' E 031°43'0 0.1
2018-Jun-16 11:03N 46°36' E 031°43'0 0.5
2018-Jun-16 10:59N 46°36' E 031°43'10 0.9
2018-Jun-15 23:50N 46°41' E 031°56'1 2.9
2018-Jun-15 23:27N 46°42' E 031°56'1 2.9
2018-Jun-15 22:59N 46°44' E 031°56'1 3.0
2018-Jun-15 22:29N 46°45' E 031°54'1 2.6
2018-Jun-15 21:59N 46°46' E 031°53'2 3.0
2018-Jun-15 21:27N 46°47' E 031°53'3 2.8
2018-Jun-15 20:22N 46°50' E 031°56'1 2.9
2018-Jun-15 19:59N 46°51' E 031°57'1 2.8
2018-Jun-15 19:30N 46°52' E 031°58'1 2.8
2018-Jun-15 19:00N 46°53' E 031°59'1 2.8
2018-Jun-15 18:30N 46°54' E 032°01'1 2.7
2018-Jun-15 18:00N 46°55' E 032°01'1 2.5
2018-Jun-15 17:30N 46°56' E 031°60'1 1.1
2018-Jun-15 17:00N 46°56' E 031°59'0 0.7
2018-Jun-15 16:30N 46°57' E 031°59'0 0.0
2018-Jun-15 16:00N 46°57' E 031°59'0 0.0
2018-Jun-15 15:29N 46°57' E 031°59'0 0.4
2018-Jun-15 15:00N 46°57' E 031°59'0 0.4
2018-Jun-15 14:30N 46°57' E 031°59'0 0.2
2018-Jun-15 14:00N 46°57' E 031°59'0 0.7
2018-Jun-15 13:30N 46°57' E 031°59'0 0.0
2018-Jun-15 13:00N 46°57' E 031°59'0 0.0
2018-Jun-15 12:30N 46°57' E 031°59'0 0.0
2018-Jun-15 12:00N 46°57' E 031°59'0 0.0
2018-Jun-15 11:30N 46°57' E 031°59'0 0.0
2018-Jun-15 11:00N 46°57' E 031°59'0 0.0
2018-Jun-15 10:30N 46°57' E 031°59'0 0.0
2018-Jun-15 10:00N 46°57' E 031°59'0 0.0
2018-Jun-15 09:30N 46°57' E 031°59'0 0.0
2018-Jun-15 09:00N 46°57' E 031°59'0 0.0
2018-Jun-15 08:30N 46°57' E 031°59'0 0.0
2018-Jun-15 08:00N 46°57' E 031°59'0 0.0
2018-Jun-15 07:30N 46°57' E 031°59'0 0.0
2018-Jun-15 07:00N 46°57' E 031°59'0 0.0
2018-Jun-15 06:30N 46°57' E 031°59'0 0.0
2018-Jun-15 06:00N 46°57' E 031°59'0 0.0
2018-Jun-15 05:30N 46°57' E 031°59'0 0.0
2018-Jun-15 05:00N 46°57' E 031°59'0 0.0
2018-Jun-15 04:30N 46°57' E 031°59'0 0.0
2018-Jun-15 04:00N 46°57' E 031°59'0 0.0
2018-Jun-15 03:30N 46°57' E 031°59'0 0.0
2018-Jun-15 03:00N 46°57' E 031°59'0 0.0
2018-Jun-15 02:30N 46°57' E 031°59'0 0.0
2018-Jun-15 02:00N 46°57' E 031°59'0 0.0
2018-Jun-15 01:30N 46°57' E 031°59'0 0.0
2018-Jun-15 01:00N 46°57' E 031°59'0 0.0
2018-Jun-15 00:30N 46°57' E 031°59'0 0.0
2018-Jun-15 00:00N 46°57' E 031°59'0 0.0
2018-Jun-14 23:30N 46°57' E 031°59'0 0.0
2018-Jun-14 23:00N 46°57' E 031°59'0 0.0
2018-Jun-14 22:30N 46°57' E 031°59'0 0.0
2018-Jun-14 22:00N 46°57' E 031°59'0 0.0
2018-Jun-14 21:30N 46°57' E 031°59'0 0.0
2018-Jun-14 21:00N 46°57' E 031°59'0 0.0
2018-Jun-14 20:30N 46°57' E 031°59'0 0.0
2018-Jun-14 20:00N 46°57' E 031°59'0 0.0
2018-Jun-14 19:30N 46°57' E 031°59'0 0.0
2018-Jun-14 19:00N 46°57' E 031°59'0 0.0
2018-Jun-14 18:30N 46°57' E 031°59'0 0.0
2018-Jun-14 18:00N 46°57' E 031°59'0 0.0
2018-Jun-14 17:30N 46°57' E 031°59'0 0.0
2018-Jun-14 17:00N 46°57' E 031°59'0 0.0
2018-Jun-14 16:30N 46°57' E 031°59'0 0.0
2018-Jun-14 16:00N 46°57' E 031°59'0 0.0
2018-Jun-14 15:30N 46°57' E 031°59'0 0.0
2018-Jun-14 15:00N 46°57' E 031°59'0 0.0
2018-Jun-14 14:30N 46°57' E 031°59'0 0.0
2018-Jun-14 14:00N 46°57' E 031°59'0 0.0
2018-Jun-14 13:30N 46°57' E 031°59'0 0.0
2018-Jun-14 13:00N 46°57' E 031°59'0 0.0
2018-Jun-14 12:30N 46°57' E 031°59'0 0.0
2018-Jun-14 12:00N 46°57' E 031°59'0 0.0
2018-Jun-14 11:30N 46°57' E 031°59'0 0.0
2018-Jun-14 11:00N 46°57' E 031°59'0 0.0
2018-Jun-14 10:30N 46°57' E 031°59'0 0.0
2018-Jun-14 10:00N 46°57' E 031°59'0 0.0
2018-Jun-14 09:30N 46°57' E 031°59'0 0.0
2018-Jun-14 09:00N 46°57' E 031°59'0 0.8
2018-Jun-14 08:30N 46°57' E 031°59'0 0.0
2018-Jun-14 08:00N 46°57' E 031°59'0 0.5
2018-Jun-14 07:30N 46°56' E 031°59'0 0.4
2018-Jun-14 07:00N 46°57' E 031°59'0 0.1
2018-Jun-14 06:30N 46°57' E 031°59'0 0.0
2018-Jun-14 06:00N 46°57' E 031°59'0 0.1
2018-Jun-14 05:30N 46°57' E 031°59'0 0.1
2018-Jun-14 04:58N 46°57' E 031°59'0 0.1
2018-Jun-14 04:30N 46°57' E 031°59'0 0.0
2018-Jun-14 04:00N 46°57' E 031°59'0 0.0
2018-Jun-14 03:30N 46°57' E 031°59'0 0.0
2018-Jun-14 03:00N 46°57' E 031°59'1 1.2
2018-Jun-14 02:30N 46°57' E 031°60'0 0.4
2018-Jun-14 02:00N 46°57' E 031°59'0 0.8
2018-Jun-14 01:30N 46°57' E 031°59'0 0.0
2018-Jun-14 01:00N 46°57' E 031°59'0 0.0
2018-Jun-14 00:30N 46°57' E 031°59'0 0.0
2018-Jun-14 00:00N 46°57' E 031°59'0 0.0
2018-Jun-13 23:30N 46°57' E 031°59'0 0.0
2018-Jun-13 23:00N 46°57' E 031°59'0 0.0
2018-Jun-13 22:30N 46°57' E 031°59'0 0.2
2018-Jun-13 22:00N 46°56' E 031°59'0 0.9
2018-Jun-13 21:30N 46°57' E 031°59'0 0.8
2018-Jun-13 21:00N 46°57' E 031°59'0 0.0
2018-Jun-13 20:30N 46°57' E 031°59'0 0.0
2018-Jun-13 20:00N 46°57' E 031°59'0 0.0
2018-Jun-13 19:30N 46°57' E 031°59'0 0.0
2018-Jun-13 19:00N 46°57' E 031°59'0 0.0
2018-Jun-13 18:30N 46°57' E 031°59'0 0.0
2018-Jun-13 18:00N 46°57' E 031°59'0 0.0
2018-Jun-13 17:30N 46°57' E 031°59'0 0.0
2018-Jun-13 17:00N 46°57' E 031°59'0 0.1
2018-Jun-13 16:30N 46°57' E 031°59'0 0.8
2018-Jun-13 16:00N 46°56' E 031°59'0 0.4
2018-Jun-13 15:30N 46°56' E 031°59'0 0.4
2018-Jun-13 15:00N 46°56' E 031°59'0 0.7
2018-Jun-13 14:30N 46°57' E 031°59'0 0.0
2018-Jun-13 14:00N 46°57' E 031°59'0 0.0
2018-Jun-13 13:30N 46°57' E 031°59'0 0.0
2018-Jun-13 13:00N 46°57' E 031°59'0 0.0
2018-Jun-13 12:30N 46°57' E 031°59'0 0.1
2018-Jun-13 12:00N 46°57' E 031°59'0 1.0
2018-Jun-13 11:30N 46°57' E 031°59'0 0.3
2018-Jun-13 10:07N 46°57' E 031°59'0 0.0
2018-Jun-13 10:00N 46°57' E 031°59'0 0.0
2018-Jun-13 09:30N 46°57' E 031°59'0 0.0
2018-Jun-13 09:00N 46°57' E 031°59'0 0.0
2018-Jun-13 08:30N 46°57' E 031°59'0 0.0
2018-Jun-13 08:00N 46°57' E 031°59'0 0.0
2018-Jun-13 07:30N 46°57' E 031°59'0 0.0
2018-Jun-13 07:00N 46°57' E 031°59'0 0.8
2018-Jun-13 06:30N 46°57' E 031°59'0 0.8
2018-Jun-13 06:00N 46°57' E 031°59'0 0.3
2018-Jun-13 05:30N 46°57' E 031°59'0 0.0
2018-Jun-13 05:00N 46°57' E 031°59'0 0.0
2018-Jun-13 04:30N 46°57' E 031°59'0 0.0
2018-Jun-13 04:00N 46°57' E 031°59'0 0.0
2018-Jun-13 03:30N 46°57' E 031°59'0 0.0
2018-Jun-13 03:00N 46°57' E 031°59'0 0.0
2018-Jun-13 02:30N 46°57' E 031°59'0 0.0
2018-Jun-13 02:00N 46°57' E 031°59'0 0.0
2018-Jun-13 01:29N 46°57' E 031°59'0 0.0
2018-Jun-13 01:00N 46°57' E 031°59'0 0.0
2018-Jun-13 00:29N 46°57' E 031°59'0 0.0
2018-Jun-13 00:00N 46°57' E 031°59'0 0.0
2018-Jun-12 23:30N 46°57' E 031°59'0 0.0
2018-Jun-12 23:00N 46°57' E 031°59'0 0.0
2018-Jun-12 22:30N 46°57' E 031°59'0 0.0
2018-Jun-12 22:00N 46°57' E 031°59'0 0.0
2018-Jun-12 21:30N 46°57' E 031°59'0 0.0
2018-Jun-12 21:00N 46°57' E 031°59'0 0.0
2018-Jun-12 20:30N 46°57' E 031°59'0 0.0
2018-Jun-12 20:00N 46°57' E 031°59'0 0.0
2018-Jun-12 19:30N 46°57' E 031°59'0 0.0
2018-Jun-12 19:00N 46°57' E 031°59'0 0.0
2018-Jun-12 18:30N 46°57' E 031°59'0 0.0
2018-Jun-12 18:00N 46°57' E 031°59'0 0.0
2018-Jun-12 17:30N 46°57' E 031°59'0 0.0
2018-Jun-12 17:00N 46°57' E 031°59'0 0.0
2018-Jun-12 16:30N 46°57' E 031°59'0 0.0
2018-Jun-12 16:00N 46°57' E 031°59'0 0.0
2018-Jun-12 15:30N 46°57' E 031°59'0 0.0
2018-Jun-12 15:00N 46°57' E 031°59'0 0.0
2018-Jun-12 14:30N 46°57' E 031°59'0 0.0
2018-Jun-12 14:00N 46°57' E 031°59'0 0.1
2018-Jun-12 13:30N 46°57' E 031°59'0 0.7
2018-Jun-12 13:00N 46°57' E 031°59'0 0.1
2018-Jun-12 12:30N 46°57' E 031°59'0 0.0
2018-Jun-12 12:00N 46°57' E 031°59'0 0.0
2018-Jun-12 11:30N 46°57' E 031°59'0 0.0
2018-Jun-12 11:00N 46°57' E 031°59'0 0.0
2018-Jun-12 10:30N 46°57' E 031°59'0 0.0
2018-Jun-12 10:00N 46°57' E 031°59'0 0.0
2018-Jun-12 09:29N 46°57' E 031°59'0 0.0
2018-Jun-12 09:00N 46°57' E 031°59'0 0.1
2018-Jun-12 08:30N 46°57' E 031°59'0 0.9
2018-Jun-12 08:00N 46°57' E 031°59'0 0.4
2018-Jun-12 07:30N 46°57' E 031°59'0 0.0
2018-Jun-12 07:00N 46°57' E 031°59'0 0.0
2018-Jun-12 06:30N 46°57' E 031°59'0 0.0
2018-Jun-12 06:00N 46°57' E 031°59'0 0.0
2018-Jun-12 05:30N 46°57' E 031°59'0 0.0
2018-Jun-12 05:00N 46°57' E 031°59'0 0.0
2018-Jun-12 04:30N 46°57' E 031°59'0 0.0
2018-Jun-12 04:00N 46°57' E 031°59'0 0.0
2018-Jun-12 03:30N 46°57' E 031°59'0 0.0
2018-Jun-12 02:59N 46°57' E 031°59'0 0.0
2018-Jun-12 02:30N 46°57' E 031°59'0 0.0
2018-Jun-12 02:00N 46°57' E 031°59'0 0.0
2018-Jun-12 01:30N 46°57' E 031°59'0 0.0
2018-Jun-12 01:00N 46°57' E 031°59'0 0.0
2018-Jun-12 00:30N 46°57' E 031°59'0 0.0
2018-Jun-12 00:00N 46°57' E 031°59'1 2.7
2018-Jun-11 23:30N 46°56' E 032°01'2 3.2
2018-Jun-11 23:00N 46°54' E 032°01'2 3.6
2018-Jun-11 22:30N 46°53' E 031°59'2 3.7
2018-Jun-11 22:00N 46°51' E 031°57'2 3.7
2018-Jun-11 21:30N 46°50' E 031°55'2 3.7
2018-Jun-11 21:00N 46°49' E 031°54'2 3.4
2018-Jun-11 20:30N 46°47' E 031°53'2 3.7
2018-Jun-11 20:00N 46°45' E 031°54'2 3.7
2018-Jun-11 19:30N 46°44' E 031°56'2 3.6
2018-Jun-11 19:00N 46°42' E 031°56'2 3.7
2018-Jun-11 18:30N 46°40' E 031°56'2 3.8
2018-Jun-11 18:00N 46°38' E 031°55'2 3.9
2018-Jun-11 17:30N 46°37' E 031°53'2 4.2
2018-Jun-11 16:59N 46°36' E 031°50'2 3.4
2018-Jun-11 16:29N 46°35' E 031°48'2 3.3
2018-Jun-11 16:00N 46°36' E 031°46'2 3.7
2018-Jun-11 15:30N 46°35' E 031°43'2 3.8
2018-Jun-11 15:00N 46°35' E 031°41'2 3.7
2018-Jun-11 14:30N 46°35' E 031°38'2 3.7
2018-Jun-11 13:59N 46°35' E 031°35'2 3.9
2018-Jun-11 13:30N 46°35' E 031°32'2 3.6
2018-Jun-11 13:00N 46°36' E 031°30'2 3.5
2018-Jun-11 12:30N 46°35' E 031°28'2 3.9
2018-Jun-11 12:00N 46°35' E 031°25'2 3.9
2018-Jun-11 11:30N 46°35' E 031°22'2 3.6
2018-Jun-11 11:00N 46°35' E 031°20'1 2.1
2018-Jun-11 10:30N 46°35' E 031°18'0 0.1
2018-Jun-11 10:00N 46°35' E 031°18'0 0.0
2018-Jun-11 09:30N 46°35' E 031°18'0 0.7
2018-Jun-11 09:00N 46°36' E 031°18'0 0.0
2018-Jun-11 08:30N 46°36' E 031°18'0 0.7
2018-Jun-11 07:59N 46°35' E 031°18'0 0.1
2018-Jun-11 07:30N 46°35' E 031°18'0 0.9
2018-Jun-11 07:00N 46°35' E 031°19'1 2.7
2018-Jun-11 06:30N 46°35' E 031°20'1 2.7
2018-Jun-11 05:59N 46°35' E 031°22'1 2.7
2018-Jun-11 05:30N 46°35' E 031°24'1 2.7
2018-Jun-11 05:00N 46°35' E 031°26'2 2.9
2018-Jun-11 04:25N 46°36' E 031°28'2 2.4
2018-Jun-11 03:37N 46°35' E 031°31'0 2.7
2018-Jun-11 03:30N 46°35' E 031°31'1 2.3
2018-Jun-11 03:00N 46°35' E 031°33'1 2.5
2018-Jun-11 02:30N 46°36' E 031°34'1 1.8
2018-Jun-11 02:00N 46°36' E 031°35'0 0.0
2018-Jun-11 01:08N 46°36' E 031°35'0 0.0
2018-Jun-11 00:58N 46°36' E 031°35'0 0.0
2018-Jun-11 00:30N 46°36' E 031°35'0 0.0
2018-Jun-10 23:04N 46°36' E 031°35'0 0.1
2018-Jun-10 22:57N 46°36' E 031°35'0 0.0
2018-Jun-10 22:30N 46°36' E 031°35'0 0.0
2018-Jun-10 22:00N 46°36' E 031°35'0 0.0
2018-Jun-10 21:30N 46°36' E 031°35'0 0.0
2018-Jun-10 21:00N 46°36' E 031°35'0 0.0
2018-Jun-10 20:30N 46°36' E 031°35'0 0.0
2018-Jun-10 19:53N 46°36' E 031°35'0 0.0
2018-Jun-10 19:22N 46°36' E 031°35'0 0.0
2018-Jun-10 18:54N 46°36' E 031°35'0 0.0
2018-Jun-10 18:20N 46°36' E 031°35'0 0.0
2018-Jun-10 17:57N 46°36' E 031°35'0 0.1
2018-Jun-10 17:30N 46°36' E 031°35'1 1.0
2018-Jun-10 16:37N 46°36' E 031°34'2 5.9
2018-Jun-10 16:16N 46°35' E 031°32'2 7.2
2018-Jun-10 16:00N 46°36' E 031°30'4 7.2
2018-Jun-10 15:30N 46°35' E 031°25'4 7.1
2018-Jun-10 15:00N 46°35' E 031°20'0 0.2
2018-Jun-10 13:30N 46°35' E 031°20'10 1.8
2018-Jun-10 07:53N 46°37' E 031°34'1 1.6
2018-Jun-10 07:29N 46°36' E 031°35'0 0.0
2018-Jun-10 07:00N 46°36' E 031°35'0 0.0
2018-Jun-10 06:30N 46°36' E 031°35'0 0.0
2018-Jun-10 06:00N 46°36' E 031°35'0 0.0
2018-Jun-10 05:26N 46°36' E 031°35'0 0.1
2018-Jun-10 05:00N 46°36' E 031°35'0 0.1
2018-Jun-10 04:30N 46°36' E 031°35'0 0.1
2018-Jun-10 04:00N 46°36' E 031°35'0 0.0
2018-Jun-10 03:30N 46°36' E 031°35'0 0.0
2018-Jun-10 03:00N 46°36' E 031°35'0 0.0
2018-Jun-10 02:30N 46°36' E 031°35'0 0.0
2018-Jun-10 02:00N 46°36' E 031°35'0 0.1
2018-Jun-10 01:31N 46°36' E 031°35'0 0.0
2018-Jun-10 01:00N 46°36' E 031°35'0 0.0
2018-Jun-10 00:31N 46°36' E 031°35'0 0.0
2018-Jun-10 00:00N 46°36' E 031°35'0 0.1
2018-Jun-09 23:29N 46°36' E 031°35'0 0.1
2018-Jun-09 23:00N 46°36' E 031°35'0 0.0
2018-Jun-09 22:30N 46°36' E 031°35'0 0.0
2018-Jun-09 22:00N 46°36' E 031°35'0 0.1
2018-Jun-09 21:30N 46°36' E 031°35'0 0.0
2018-Jun-09 21:00N 46°36' E 031°35'0 0.0
2018-Jun-09 20:30N 46°36' E 031°35'0 0.0
2018-Jun-09 20:00N 46°36' E 031°35'0 0.0
2018-Jun-09 19:30N 46°36' E 031°35'0 0.0
2018-Jun-09 19:00N 46°36' E 031°35'0 0.0
2018-Jun-09 18:30N 46°36' E 031°35'0 0.0
2018-Jun-09 18:00N 46°36' E 031°35'0 0.0
2018-Jun-09 17:29N 46°36' E 031°35'0 0.0
2018-Jun-09 17:00N 46°36' E 031°35'0 0.0
2018-Jun-09 16:30N 46°36' E 031°35'0 0.0
2018-Jun-09 16:00N 46°36' E 031°35'0 0.0
2018-Jun-09 15:30N 46°36' E 031°35'0 0.0
2018-Jun-09 14:30N 46°36' E 031°35'0 0.0
2018-Jun-09 14:00N 46°36' E 031°35'0 0.0
2018-Jun-09 13:29N 46°36' E 031°35'0 0.0
2018-Jun-09 12:59N 46°36' E 031°35'0 0.0
2018-Jun-09 12:30N 46°36' E 031°35'0 0.0
2018-Jun-09 12:00N 46°36' E 031°35'0 0.0
2018-Jun-09 11:29N 46°36' E 031°35'0 0.0
2018-Jun-09 10:56N 46°36' E 031°35'0 0.0
2018-Jun-09 10:19N 46°36' E 031°35'0 0.0
2018-Jun-09 09:56N 46°36' E 031°35'0 0.0
2018-Jun-09 09:30N 46°36' E 031°35'0 0.0
2018-Jun-09 08:54N 46°36' E 031°35'4 2.8
2018-Jun-09 07:39N 46°35' E 031°40'1 3.8
2018-Jun-09 07:30N 46°35' E 031°40'2 3.8
2018-Jun-09 07:00N 46°36' E 031°43'2 3.7
2018-Jun-09 06:30N 46°35' E 031°46'2 3.6
2018-Jun-09 05:59N 46°35' E 031°49'2 3.7
2018-Jun-09 05:29N 46°35' E 031°51'2 3.5
2018-Jun-09 05:00N 46°34' E 031°54'2 3.4
2018-Jun-09 04:30N 46°34' E 031°56'2 3.4
2018-Jun-09 04:00N 46°33' E 031°58'2 3.3
2018-Jun-09 03:30N 46°33' E 032°00'2 3.2
2018-Jun-09 03:00N 46°32' E 032°03'2 3.3
2018-Jun-09 02:30N 46°32' E 032°05'2 3.3
2018-Jun-09 02:00N 46°32' E 032°07'2 3.2
2018-Jun-09 01:29N 46°32' E 032°10'2 3.2
2018-Jun-09 00:59N 46°33' E 032°12'1 3.1
2018-Jun-09 00:30N 46°33' E 032°14'2 3.5
2018-Jun-09 00:00N 46°33' E 032°17'2 3.8
2018-Jun-08 23:30N 46°33' E 032°19'2 3.5
2018-Jun-08 23:00N 46°33' E 032°22'2 3.5
2018-Jun-08 22:30N 46°33' E 032°24'1 2.5
2018-Jun-08 22:00N 46°33' E 032°26'0 0.1
2018-Jun-08 21:30N 46°33' E 032°26'0 0.1
2018-Jun-08 21:00N 46°33' E 032°26'1 2.0
2018-Jun-08 20:30N 46°34' E 032°27'2 4.1
2018-Jun-08 20:00N 46°35' E 032°30'3 3.7
2018-Jun-08 19:16N 46°36' E 032°34'1 1.5
2018-Jun-08 18:23N 46°35' E 032°35'1 3.0
2018-Jun-08 18:00N 46°34' E 032°34'  

Dump ship's entire track history